Time;durP1;ratioP1;P1;durP2;ratioP2;P2;SDS_P1;SDS_P2;PMS_P1;PMS_P2;Temp;Humidity;BMP_temperature;BMP_pressure;BME280_temperature;BME280_humidity;BME280_pressure;Samples;Min_cycle;Max_cycle;Signal;HPM_P1;HPM_P2
2022/05/27 00:01:12;;;;;;;6.03;2.77;;;18.20;89.40;;;;;;5028881;28;20782;-81
2022/05/27 00:03:41;;;;;;;4.03;2.70;;;18.20;89.40;;;;;;5028065;28;20952;-81
2022/05/27 00:06:08;;;;;;;4.20;2.40;;;18.20;89.30;;;;;;5028754;28;20849;-82
2022/05/27 00:08:35;;;;;;;5.60;2.40;;;18.20;89.40;;;;;;5028717;28;20419;-85
2022/05/27 00:11:01;;;;;;;2.57;2.37;;;18.20;89.30;;;;;;5027271;28;20475;-85
2022/05/27 00:13:28;;;;;;;4.17;2.40;;;18.20;89.40;;;;;;5029669;28;20853;-81
2022/05/27 00:15:54;;;;;;;5.40;2.30;;;18.20;89.50;;;;;;5028671;28;20200;-82
2022/05/27 00:18:20;;;;;;;4.10;2.10;;;18.20;89.40;;;;;;5024597;28;21106;-81
2022/05/27 00:20:47;;;;;;;8.10;3.00;;;18.20;89.50;;;;;;5025108;28;20730;-81
2022/05/27 00:23:13;;;;;;;4.33;2.70;;;18.10;89.70;;;;;;5026275;28;20199;-81
2022/05/27 00:25:39;;;;;;;4.97;2.87;;;18.20;89.60;;;;;;5028367;28;20932;-82
2022/05/27 00:28:05;;;;;;;3.53;2.30;;;18.20;89.60;;;;;;5028466;28;20420;-82
2022/05/27 00:30:31;;;;;;;4.27;2.70;;;18.20;89.80;;;;;;5025561;28;20408;-82
2022/05/27 00:32:58;;;;;;;5.03;2.57;;;18.10;89.70;;;;;;5027118;28;20173;-82
2022/05/27 00:35:24;;;;;;;13.33;2.70;;;18.10;89.80;;;;;;5024464;28;20781;-84
2022/05/27 00:37:50;;;;;;;5.00;2.70;;;18.10;89.80;;;;;;5035082;28;20462;-83
2022/05/27 00:40:17;;;;;;;9.00;2.80;;;18.10;89.80;;;;;;5041707;28;20481;-84
2022/05/27 00:42:45;;;;;;;4.60;2.50;;;18.10;89.90;;;;;;5039789;28;20220;-84
2022/05/27 00:45:21;;;;;;;4.20;2.53;;;18.10;89.80;;;;;;5058793;28;20441;-83
2022/05/27 00:47:51;;;;;;;6.70;2.53;;;18.10;89.90;;;;;;5041826;28;20417;-83
2022/05/27 00:50:19;;;;;;;3.57;2.43;;;18.10;90.00;;;;;;5042044;28;20720;-83
2022/05/27 00:52:48;;;;;;;5.83;2.67;;;18.10;89.90;;;;;;5042629;28;20418;-83
2022/05/27 00:55:21;;;;;;;5.97;3.37;;;18.10;90.00;;;;;;5042817;28;20423;-82
2022/05/27 00:58:09;;;;;;;4.10;2.77;;;18.10;90.10;;;;;;5041390;28;20970;-82
2022/05/27 01:00:36;;;;;;;8.13;3.00;;;18.20;90.10;;;;;;5045167;28;20414;-84
2022/05/27 01:03:04;;;;;;;9.60;2.93;;;18.10;90.10;;;;;;5044911;28;20433;-81
2022/05/27 01:05:30;;;;;;;5.13;2.50;;;18.20;90.20;;;;;;5046501;28;20430;-83
2022/05/27 01:08:03;;;;;;;4.60;2.70;;;18.10;90.30;;;;;;5046460;28;20421;-83
2022/05/27 01:10:39;;;;;;;5.90;2.80;;;18.10;90.30;;;;;;5041476;28;20224;-82
2022/05/27 01:13:12;;;;;;;5.77;2.60;;;18.10;90.30;;;;;;5042221;28;20426;-83
2022/05/27 01:15:54;;;;;;;5.87;2.83;;;18.10;90.40;;;;;;5058905;28;20489;-84
2022/05/27 01:22:03;;;;;;;6.73;3.00;;;18.10;90.60;;;;;;5044039;28;20434;-83
2022/05/27 01:25:14;;;;;;;4.60;2.53;;;18.10;90.60;;;;;;5041212;28;20423;-83
2022/05/27 01:28:16;;;;;;;5.03;3.30;;;18.10;90.70;;;;;;5026321;28;20443;-83
2022/05/27 01:30:46;;;;;;;9.73;2.53;;;18.10;90.90;;;;;;5037757;28;20426;-81
2022/05/27 01:33:18;;;;;;;5.30;2.67;;;18.00;91.10;;;;;;5039655;28;20412;-82
2022/05/27 01:35:47;;;;;;;9.70;2.20;;;18.00;91.10;;;;;;5055407;28;20439;-82
2022/05/27 01:38:37;;;;;;;7.67;2.47;;;18.00;91.30;;;;;;5023173;28;20431;-83
2022/05/27 01:41:02;;;;;;;6.47;2.53;;;18.00;91.50;;;;;;5018433;28;20467;-83
2022/05/27 01:43:40;;;;;;;6.33;2.20;;;18.00;91.50;;;;;;5019178;28;20423;-82
2022/05/27 01:46:34;;;;;;;12.53;2.27;;;18.00;91.60;;;;;;5018468;28;20242;-83
2022/05/27 01:49:21;;;;;;;3.60;2.27;;;18.00;91.60;;;;;;5019027;28;20534;-83
2022/05/27 01:52:02;;;;;;;3.50;2.00;;;17.90;91.80;;;;;;5019498;28;20454;-83
2022/05/27 01:54:42;;;;;;;3.57;2.13;;;17.90;91.80;;;;;;5020987;28;20766;-83
2022/05/27 01:57:25;;;;;;;4.67;2.10;;;17.90;92.00;;;;;;5018929;28;20526;-82
2022/05/27 02:00:01;;;;;;;5.13;2.20;;;17.90;92.20;;;;;;5019327;28;20467;-83
2022/05/27 02:02:30;;;;;;;8.40;2.07;;;17.90;92.20;;;;;;5020510;28;20415;-83
2022/05/27 02:05:13;;;;;;;7.47;2.70;;;17.90;92.50;;;;;;5020429;28;20455;-83
2022/05/27 02:07:43;;;;;;;4.57;2.30;;;17.90;92.50;;;;;;5018249;28;20465;-83
2022/05/27 02:10:15;;;;;;;2.77;2.00;;;17.90;92.50;;;;;;5020269;28;20503;-84
2022/05/27 02:12:47;;;;;;;4.00;2.37;;;17.90;92.60;;;;;;5020877;28;21040;-83
2022/05/27 02:15:32;;;;;;;5.80;2.30;;;17.90;92.60;;;;;;5022604;28;20430;-81
2022/05/27 02:18:23;;;;;;;6.83;2.53;;;17.90;92.60;;;;;;5019224;28;20632;-81
2022/05/27 02:20:56;;;;;;;7.67;2.77;;;17.90;92.70;;;;;;5014457;28;20478;-83
2022/05/27 02:23:28;;;;;;;4.40;2.50;;;17.90;92.80;;;;;;5020685;28;20513;-83
2022/05/27 02:25:56;;;;;;;5.40;2.67;;;17.90;92.90;;;;;;5020335;28;20485;-83
2022/05/27 02:28:29;;;;;;;6.33;2.60;;;17.90;92.90;;;;;;5020599;28;21002;-82
2022/05/27 02:31:04;;;;;;;8.13;2.67;;;17.90;93.00;;;;;;5018390;28;20439;-83
2022/05/27 02:36:33;;;;;;;4.90;2.37;;;17.90;93.00;;;;;;5036648;28;20951;-84
2022/05/27 02:38:58;;;;;;;5.33;2.47;;;18.00;94.10;;;;;;5036412;28;20490;-83
2022/05/27 02:41:39;;;;;;;3.10;2.50;;;17.90;94.70;;;;;;5035808;28;20794;-84
2022/05/27 02:44:27;;;;;;;5.73;2.80;;;17.90;95.10;;;;;;5035707;28;20171;-83
2022/05/27 02:47:14;;;;;;;3.40;2.70;;;17.80;95.80;;;;;;5035955;28;20473;-83
2022/05/27 02:50:01;;;;;;;4.97;3.23;;;17.70;96.40;;;;;;5036070;28;20425;-84
2022/05/27 02:52:47;;;;;;;5.07;2.60;;;17.60;96.90;;;;;;5035243;28;20475;-84
2022/05/27 02:55:16;;;;;;;6.17;2.73;;;17.50;97.20;;;;;;5035084;28;20418;-84
2022/05/27 02:57:53;;;;;;;10.40;2.80;;;17.40;97.30;;;;;;5036605;28;20415;-83
2022/05/27 03:00:23;;;;;;;6.43;2.60;;;17.40;97.30;;;;;;5053719;28;20551;-84
2022/05/27 03:02:48;;;;;;;11.37;3.33;;;17.40;97.30;;;;;;5035540;28;20445;-83
2022/05/27 03:05:17;;;;;;;8.10;2.67;;;17.30;97.30;;;;;;5035792;28;20419;-84
2022/05/27 03:08:21;;;;;;;8.87;2.77;;;17.30;97.30;;;;;;5036181;28;20240;-84
2022/05/27 03:11:23;;;;;;;7.87;3.97;;;17.30;97.30;;;;;;5031774;28;20982;-84
2022/05/27 03:14:03;;;;;;;6.17;2.70;;;17.30;97.30;;;;;;5049609;28;20502;-84
2022/05/27 03:16:47;;;;;;;4.63;2.63;;;17.30;97.30;;;;;;5048613;28;20439;-85
2022/05/27 03:19:21;;;;;;;5.93;3.57;;;17.20;97.30;;;;;;5049613;28;20447;-84
2022/05/27 03:22:31;;;;;;;3.80;2.60;;;17.20;97.30;;;;;;5052897;28;20425;-83
2022/05/27 03:25:08;;;;;;;4.50;2.80;;;17.20;97.30;;;;;;5036320;28;20962;-84
2022/05/27 03:27:58;;;;;;;5.90;3.20;;;17.20;97.30;;;;;;5037306;28;20399;-81
2022/05/27 03:30:37;;;;;;;5.30;3.00;;;17.10;97.30;;;;;;5039314;28;20407;-81
2022/05/27 03:33:24;;;;;;;3.20;2.50;;;17.10;97.30;;;;;;5038210;28;20987;-81
2022/05/27 03:36:18;;;;;;;10.20;2.87;;;17.10;97.30;;;;;;5037703;28;20525;-81
2022/05/27 03:39:02;;;;;;;4.50;3.40;;;17.10;97.30;;;;;;5037385;28;20546;-81
2022/05/27 03:41:44;;;;;;;7.87;3.87;;;17.10;97.30;;;;;;5037618;28;20407;-81
2022/05/27 03:44:16;;;;;;;5.40;2.97;;;17.10;97.30;;;;;;5037993;28;20419;-81
2022/05/27 03:46:44;;;;;;;5.47;3.00;;;17.00;97.30;;;;;;5037656;28;20442;-81
2022/05/27 03:49:12;;;;;;;4.37;2.60;;;17.00;97.30;;;;;;5037843;28;20415;-81
2022/05/27 03:51:55;;;;;;;5.97;3.07;;;17.00;97.30;;;;;;5036609;28;20476;-81
2022/05/27 03:54:26;;;;;;;9.73;4.63;;;17.00;97.30;;;;;;5037443;28;20944;-81
2022/05/27 03:56:55;;;;;;;6.20;3.53;;;17.00;97.30;;;;;;5036503;28;20945;-81
2022/05/27 03:59:23;;;;;;;8.63;3.13;;;16.90;97.30;;;;;;5038237;28;20522;-80
2022/05/27 04:01:55;;;;;;;10.20;3.50;;;16.90;97.30;;;;;;5037017;28;20415;-81
2022/05/27 04:04:26;;;;;;;8.10;3.53;;;16.80;97.30;;;;;;5037156;28;20596;-81
2022/05/27 04:06:51;;;;;;;9.53;4.10;;;16.70;97.30;;;;;;5037053;28;20497;-81
2022/05/27 04:09:19;;;;;;;5.60;3.40;;;16.70;97.30;;;;;;5036789;28;20431;-80
2022/05/27 04:11:45;;;;;;;9.73;3.90;;;16.60;97.30;;;;;;5036071;28;20236;-81
2022/05/27 04:14:11;;;;;;;5.33;3.70;;;16.60;97.30;;;;;;5036054;28;20434;-80
2022/05/27 04:16:37;;;;;;;10.27;4.10;;;16.50;97.30;;;;;;5035928;28;20443;-80
2022/05/27 04:19:03;;;;;;;6.50;4.33;;;16.50;97.30;;;;;;5036352;28;20990;-80
2022/05/27 04:21:29;;;;;;;4.83;3.90;;;16.40;97.30;;;;;;5035958;28;20231;-80
2022/05/27 04:23:55;;;;;;;6.87;3.70;;;16.30;97.30;;;;;;5036364;28;20415;-80
2022/05/27 04:26:21;;;;;;;7.43;4.03;;;16.30;97.30;;;;;;5035919;28;20200;-80
2022/05/27 04:28:47;;;;;;;7.00;4.30;;;16.30;97.30;;;;;;5036175;28;20218;-80
2022/05/27 04:31:13;;;;;;;7.60;4.20;;;16.30;97.30;;;;;;5036272;28;20423;-80
2022/05/27 04:33:39;;;;;;;9.10;4.70;;;16.30;97.30;;;;;;5036592;28;20180;-81
2022/05/27 04:36:07;;;;;;;8.77;4.00;;;16.30;97.30;;;;;;5037674;28;20442;-81
2022/05/27 04:38:33;;;;;;;5.50;3.90;;;16.30;97.30;;;;;;5036203;28;20455;-80
2022/05/27 04:40:59;;;;;;;8.00;4.10;;;16.30;97.30;;;;;;5035472;28;20411;-80
2022/05/27 04:43:25;;;;;;;6.40;3.67;;;16.30;97.30;;;;;;5036298;28;20423;-80
2022/05/27 04:45:51;;;;;;;10.87;4.73;;;16.30;97.30;;;;;;5035669;28;20216;-80
2022/05/27 04:48:18;;;;;;;8.27;5.10;;;16.30;97.30;;;;;;5036707;28;20183;-79
2022/05/27 04:50:44;;;;;;;9.43;4.40;;;16.30;97.30;;;;;;5035088;28;20569;-80
2022/05/27 04:53:10;;;;;;;7.13;3.80;;;16.30;97.30;;;;;;5034922;28;20940;-79
2022/05/27 04:55:37;;;;;;;5.30;4.10;;;16.20;97.30;;;;;;5034545;28;20866;-80
2022/05/27 04:58:04;;;;;;;17.73;4.63;;;16.20;97.30;;;;;;5034054;28;20498;-79
2022/05/27 05:00:38;;;;;;;7.63;3.80;;;16.20;97.30;;;;;;5035655;28;20418;-79
2022/05/27 05:03:05;;;;;;;12.43;4.20;;;16.20;97.30;;;;;;5033963;28;20496;-78
2022/05/27 05:05:34;;;;;;;8.27;3.90;;;16.10;97.30;;;;;;5033529;28;20431;-79
2022/05/27 05:08:17;;;;;;;10.73;4.13;;;16.10;97.30;;;;;;5033268;28;20470;-79
2022/05/27 05:10:44;;;;;;;6.30;4.10;;;16.10;97.30;;;;;;5033057;28;20612;-79
2022/05/27 05:13:15;;;;;;;7.47;4.40;;;16.00;97.30;;;;;;5031973;28;20430;-78
2022/05/27 05:15:44;;;;;;;5.80;3.73;;;16.00;97.30;;;;;;5032145;28;20484;-78
2022/05/27 05:18:13;;;;;;;11.10;4.23;;;16.00;97.30;;;;;;5030767;28;20416;-78
2022/05/27 05:20:39;;;;;;;7.97;4.77;;;15.90;97.30;;;;;;5031009;28;20483;-77
2022/05/27 05:23:05;;;;;;;8.20;4.80;;;15.90;97.30;;;;;;5030550;28;20415;-77
2022/05/27 05:25:32;;;;;;;6.17;4.20;;;15.80;97.30;;;;;;5031429;28;21038;-77
2022/05/27 05:27:58;;;;;;;10.97;4.70;;;15.70;97.30;;;;;;5031119;28;20188;-78
2022/05/27 05:30:25;;;;;;;10.63;6.13;;;15.70;97.30;;;;;;5030677;28;20439;-77
2022/05/27 05:32:52;;;;;;;10.23;5.17;;;15.70;97.30;;;;;;5030165;28;20185;-77
2022/05/27 05:35:18;;;;;;;11.27;5.80;;;15.60;97.30;;;;;;5029919;28;20506;-78
2022/05/27 05:37:44;;;;;;;7.97;6.87;;;15.50;97.30;;;;;;5029992;28;20427;-78
2022/05/27 05:40:11;;;;;;;11.60;5.10;;;15.50;97.30;;;;;;5030302;28;20550;-80
2022/05/27 05:42:38;;;;;;;18.57;7.07;;;15.40;97.30;;;;;;5029228;28;20422;-78
2022/05/27 05:45:04;;;;;;;7.33;4.40;;;15.30;97.30;;;;;;5030416;28;20431;-78
2022/05/27 05:47:30;;;;;;;9.00;4.20;;;15.30;97.30;;;;;;5029810;28;20548;-78
2022/05/27 05:49:55;;;;;;;9.90;4.60;;;15.20;97.30;;;;;;5030671;28;20515;-82
2022/05/27 05:52:21;;;;;;;7.27;4.10;;;15.20;97.30;;;;;;5032111;28;20185;-77
2022/05/27 05:54:47;;;;;;;11.37;5.63;;;15.10;97.30;;;;;;5030246;28;20184;-78
2022/05/27 05:57:12;;;;;;;7.00;4.23;;;15.10;97.30;;;;;;5029072;28;20200;-76
2022/05/27 05:59:38;;;;;;;5.40;4.20;;;15.10;97.30;;;;;;5029428;28;20204;-75
2022/05/27 06:02:05;;;;;;;5.73;3.67;;;15.00;97.30;;;;;;5029090;28;20188;-76
2022/05/27 06:04:31;;;;;;;10.20;3.93;;;15.00;97.30;;;;;;5029496;28;20176;-76
2022/05/27 06:06:58;;;;;;;7.57;3.70;;;15.00;97.30;;;;;;5029075;28;20442;-76
2022/05/27 06:09:25;;;;;;;7.90;4.37;;;15.00;97.30;;;;;;5029625;28;20263;-77
2022/05/27 06:11:56;;;;;;;4.60;2.80;;;15.00;97.30;;;;;;5028961;28;20459;-76
2022/05/27 06:14:22;;;;;;;4.53;1.30;;;15.00;97.30;;;;;;5030131;28;20481;-78
2022/05/27 06:16:47;;;;;;;2.70;1.30;;;14.70;97.30;;;;;;5032114;28;20439;-79
2022/05/27 06:19:13;;;;;;;2.67;1.27;;;14.50;97.30;;;;;;5032990;28;20593;-78
2022/05/27 06:21:39;;;;;;;3.33;1.40;;;14.30;97.30;;;;;;5031262;28;20172;-78
2022/05/27 06:24:04;;;;;;;2.83;1.53;;;14.20;97.30;;;;;;5031867;28;20177;-79
2022/05/27 06:26:30;;;;;;;1.57;1.37;;;14.10;97.30;;;;;;5031658;28;20249;-79
2022/05/27 06:34:25;;;;;;;5.33;1.43;;;13.90;97.30;;;;;;5036394;28;20461;-80
2022/05/27 06:36:58;;;;;;;1.83;1.30;;;13.90;97.30;;;;;;5034655;28;20504;-80
2022/05/27 06:39:26;;;;;;;3.40;1.40;;;13.90;97.30;;;;;;5033578;28;20459;-80
2022/05/27 06:41:52;;;;;;;1.40;1.40;;;13.90;97.30;;;;;;5033347;28;20415;-80
2022/05/27 06:44:19;;;;;;;3.17;1.80;;;13.90;97.30;;;;;;5033470;28;20693;-81
2022/05/27 06:46:45;;;;;;;2.70;1.63;;;13.90;97.30;;;;;;5034713;28;20442;-80
2022/05/27 06:49:12;;;;;;;4.37;2.00;;;13.90;97.30;;;;;;5034016;28;20419;-80
2022/05/27 06:51:39;;;;;;;3.13;1.53;;;14.00;97.30;;;;;;5033688;28;20937;-80
2022/05/27 06:54:06;;;;;;;4.57;1.90;;;14.00;97.30;;;;;;5033553;28;20422;-81
2022/05/27 06:56:35;;;;;;;1.60;1.50;;;14.10;97.30;;;;;;5032301;28;20435;-80
2022/05/27 06:59:02;;;;;;;1.63;1.30;;;14.00;97.30;;;;;;5033761;28;20659;-80
2022/05/27 07:01:27;;;;;;;4.60;2.33;;;14.10;97.30;;;;;;5030714;28;20634;-81
2022/05/27 07:03:53;;;;;;;1.70;1.57;;;14.10;97.30;;;;;;5032601;28;20403;-79
2022/05/27 07:06:19;;;;;;;1.50;1.40;;;14.10;97.30;;;;;;5031131;28;20223;-79
2022/05/27 07:08:45;;;;;;;3.03;1.40;;;14.10;97.30;;;;;;5033966;28;20176;-80
2022/05/27 07:11:12;;;;;;;3.60;1.70;;;14.20;97.30;;;;;;5044656;28;20461;-80
2022/05/27 07:13:37;;;;;;;4.50;1.93;;;14.20;97.30;;;;;;5034371;28;20422;-78
2022/05/27 07:16:04;;;;;;;4.10;1.90;;;14.20;97.30;;;;;;5032341;28;20895;-77
2022/05/27 07:18:31;;;;;;;4.30;1.40;;;14.20;97.30;;;;;;5033142;28;20199;-79
2022/05/27 07:21:02;;;;;;;2.53;1.60;;;14.20;97.30;;;;;;5037236;28;20784;-80
2022/05/27 07:23:28;;;;;;;2.23;1.30;;;14.20;97.30;;;;;;5034380;28;20422;-79
2022/05/27 07:25:54;;;;;;;2.60;1.90;;;14.20;97.30;;;;;;5032555;28;20434;-79
2022/05/27 07:28:20;;;;;;;2.70;1.90;;;14.20;97.30;;;;;;5032731;28;20180;-77
2022/05/27 07:30:46;;;;;;;3.17;2.10;;;14.10;97.30;;;;;;5032379;28;20630;-78
2022/05/27 07:33:12;;;;;;;4.80;1.97;;;14.10;97.30;;;;;;5032394;28;20505;-77
2022/05/27 07:35:37;;;;;;;2.60;1.87;;;14.10;97.30;;;;;;5032263;28;20279;-78
2022/05/27 07:38:03;;;;;;;4.23;1.97;;;14.10;97.30;;;;;;5031487;28;20176;-78
2022/05/27 07:40:28;;;;;;;2.70;1.77;;;14.10;97.30;;;;;;5031091;28;20229;-78
2022/05/27 07:42:54;;;;;;;2.73;2.00;;;14.10;97.30;;;;;;5032700;28;20176;-78
2022/05/27 07:45:26;;;;;;;4.03;1.63;;;14.10;97.30;;;;;;5030936;28;20180;-78
2022/05/27 07:47:52;;;;;;;2.50;1.90;;;14.10;97.30;;;;;;5030602;28;20187;-77
2022/05/27 07:50:20;;;;;;;3.73;1.63;;;14.20;97.30;;;;;;5031050;28;20442;-77
2022/05/27 07:52:48;;;;;;;2.70;1.80;;;14.20;97.30;;;;;;5030839;28;20429;-76
2022/05/27 07:55:14;;;;;;;3.00;1.80;;;14.30;97.30;;;;;;5028122;28;20422;-78
2022/05/27 07:57:41;;;;;;;2.27;1.77;;;14.40;97.30;;;;;;5030717;28;20429;-77
2022/05/27 08:00:12;;;;;;;1.93;1.87;;;14.40;97.30;;;;;;5030823;28;20200;-77
2022/05/27 08:02:39;;;;;;;2.60;1.60;;;14.40;97.30;;;;;;5028752;28;20502;-76
2022/05/27 08:05:07;;;;;;;3.53;2.10;;;14.40;97.30;;;;;;5030690;28;20793;-76
2022/05/27 08:07:34;;;;;;;4.80;1.83;;;14.40;97.30;;;;;;5034327;28;20425;-76
2022/05/27 08:10:01;;;;;;;5.30;2.10;;;14.40;97.30;;;;;;5033684;28;20938;-77
2022/05/27 08:12:26;;;;;;;4.07;2.10;;;14.40;97.30;;;;;;5034474;28;20835;-76
2022/05/27 08:14:55;;;;;;;5.60;1.90;;;14.40;97.30;;;;;;5034667;28;20468;-77
2022/05/27 08:17:25;;;;;;;2.73;1.90;;;14.40;97.30;;;;;;5033656;28;20214;-77
2022/05/27 08:19:55;;;;;;;4.70;2.47;;;14.50;97.30;;;;;;5035523;28;20527;-77
2022/05/27 08:22:20;;;;;;;3.70;2.00;;;14.50;97.30;;;;;;5034393;28;20662;-77
2022/05/27 08:24:59;;;;;;;2.70;2.00;;;14.60;97.30;;;;;;5036782;28;20642;-80
2022/05/27 08:27:25;;;;;;;3.93;2.00;;;14.70;97.30;;;;;;5032856;28;20203;-81
2022/05/27 08:29:51;;;;;;;3.03;2.27;;;14.80;97.30;;;;;;5038417;28;20443;-79
2022/05/27 08:32:16;;;;;;;4.90;2.90;;;14.80;97.30;;;;;;5044641;28;20183;-79
2022/05/27 08:40:40;;;;;;;5.63;2.40;;;14.80;97.30;;;;;;5042019;28;20534;-79
2022/05/27 08:43:15;;;;;;;3.27;2.37;;;14.80;97.30;;;;;;5040370;28;20425;-80
2022/05/27 08:46:19;;;;;;;3.83;2.40;;;14.90;97.30;;;;;;5043686;28;20870;-79
2022/05/27 08:48:49;;;;;;;5.67;2.97;;;15.10;97.30;;;;;;4994448;28;20410;-79
2022/05/27 08:51:35;;;;;;;3.40;2.50;;;15.20;97.30;;;;;;5033806;28;20442;-79
2022/05/27 08:54:25;;;;;;;4.57;2.80;;;15.30;97.30;;;;;;5039259;28;20422;-78
2022/05/27 08:59:41;;;;;;;10.67;2.77;;;15.20;97.30;;;;;;5051096;28;20500;-79
2022/05/27 09:02:29;;;;;;;5.10;2.20;;;15.20;97.30;;;;;;5050387;28;20415;-79
2022/05/27 09:05:14;;;;;;;5.60;4.17;;;15.20;97.30;;;;;;5050720;28;20437;-79
2022/05/27 09:07:59;;;;;;;6.30;2.87;;;15.10;97.30;;;;;;5050659;28;20413;-79
2022/05/27 09:10:34;;;;;;;3.50;2.70;;;15.10;97.30;;;;;;5050897;28;20462;-78
2022/05/27 09:13:24;;;;;;;5.70;3.10;;;15.10;97.30;;;;;;5050831;28;20496;-79
2022/05/27 09:16:01;;;;;;;4.60;3.03;;;15.00;97.30;;;;;;5050804;28;20813;-80
2022/05/27 09:18:42;;;;;;;4.77;2.80;;;15.00;97.30;;;;;;5050264;28;20776;-79
2022/05/27 09:21:34;;;;;;;3.70;2.90;;;15.00;97.30;;;;;;5051993;28;20969;-79
2022/05/27 09:24:22;;;;;;;3.37;2.70;;;15.00;97.30;;;;;;5020454;28;20430;-79
2022/05/27 09:27:06;;;;;;;4.27;3.03;;;15.00;97.30;;;;;;5050230;28;20615;-80
2022/05/27 09:29:50;;;;;;;4.60;3.17;;;15.10;97.30;;;;;;5050079;28;20446;-79
2022/05/27 09:32:40;;;;;;;5.13;2.90;;;15.20;97.30;;;;;;5049850;28;20459;-79
2022/05/27 09:35:20;;;;;;;6.90;2.97;;;15.30;97.30;;;;;;5050319;28;20445;-79
2022/05/27 09:37:49;;;;;;;4.70;2.97;;;15.30;97.30;;;;;;5040529;28;20467;-78
2022/05/27 09:40:35;;;;;;;4.63;3.10;;;15.50;97.30;;;;;;5032782;28;20454;-79
2022/05/27 09:43:23;;;;;;;10.10;3.20;;;15.60;97.30;;;;;;5051749;28;20403;-79
2022/05/27 09:45:58;;;;;;;7.97;3.00;;;15.60;97.30;;;;;;5033334;28;20496;-79
2022/05/27 09:48:25;;;;;;;7.13;2.80;;;15.60;97.30;;;;;;5033125;28;20413;-78
2022/05/27 09:50:51;;;;;;;4.13;3.20;;;15.60;97.30;;;;;;5050945;28;20406;-79
2022/05/27 09:53:27;;;;;;;3.70;2.80;;;15.70;97.30;;;;;;5033264;28;20496;-79
2022/05/27 09:56:04;;;;;;;4.53;2.90;;;15.70;97.30;;;;;;5033170;28;20925;-78
2022/05/27 09:58:36;;;;;;;11.23;3.20;;;15.80;97.30;;;;;;5030922;28;20414;-79
2022/05/27 10:01:27;;;;;;;2.70;2.40;;;15.80;97.30;;;;;;5012371;28;20468;-79
2022/05/27 10:04:20;;;;;;;4.93;3.03;;;15.90;97.30;;;;;;5012343;28;20427;-78
2022/05/27 10:06:46;;;;;;;6.10;3.40;;;15.90;97.30;;;;;;5029741;28;20525;-80
2022/05/27 10:09:33;;;;;;;6.03;3.27;;;15.90;97.30;;;;;;5032190;28;20434;-78
2022/05/27 10:11:59;;;;;;;4.40;2.40;;;16.00;97.30;;;;;;5029738;28;20986;-78
2022/05/27 10:14:32;;;;;;;2.57;2.37;;;15.90;97.30;;;;;;5033603;28;20418;-83
2022/05/27 10:17:00;;;;;;;4.10;2.50;;;16.00;97.30;;;;;;5027750;28;20202;-80
2022/05/27 10:19:26;;;;;;;5.63;2.80;;;16.00;97.30;;;;;;5038624;28;21053;-86
2022/05/27 10:22:01;;;;;;;4.20;2.73;;;16.20;97.30;;;;;;5039082;28;20441;-81
2022/05/27 10:24:35;;;;;;;4.43;3.93;;;16.30;97.30;;;;;;5038483;28;20532;-82
2022/05/27 10:27:13;;;;;;;4.20;2.63;;;16.50;97.30;;;;;;5039267;28;20502;-82
2022/05/27 10:30:00;;;;;;;4.70;3.10;;;16.70;97.30;;;;;;5055756;28;20406;-83
2022/05/27 10:32:42;;;;;;;4.83;2.57;;;16.80;97.30;;;;;;5038027;28;20422;-81
2022/05/27 10:35:28;;;;;;;3.50;2.43;;;17.00;97.30;;;;;;5036121;28;20410;-82
2022/05/27 10:38:20;;;;;;;4.70;2.57;;;17.00;97.30;;;;;;5044116;28;20403;-81
2022/05/27 10:41:06;;;;;;;2.47;2.27;;;17.00;97.30;;;;;;5021892;28;20431;-80
2022/05/27 10:43:38;;;;;;;3.63;2.30;;;16.90;97.30;;;;;;5036811;28;20444;-82
2022/05/27 10:46:07;;;;;;;3.87;2.53;;;16.80;97.30;;;;;;5037771;28;20435;-82
2022/05/27 10:48:52;;;;;;;5.20;2.80;;;16.80;97.30;;;;;;5037031;28;20438;-84
2022/05/27 10:51:44;;;;;;;5.53;2.33;;;17.00;97.30;;;;;;5035810;28;20406;-82
2022/05/27 10:54:46;;;;;;;6.10;2.20;;;17.10;97.30;;;;;;5036950;28;20414;-81
2022/05/27 11:03:12;;;;;;;4.70;2.40;;;17.40;97.30;;;;;;5051789;28;20447;-82
2022/05/27 11:05:43;;;;;;;7.60;2.57;;;17.40;97.30;;;;;;5034775;28;20947;-84
2022/05/27 11:08:26;;;;;;;4.33;2.40;;;17.50;97.30;;;;;;5032869;28;20415;-85
2022/05/27 11:11:04;;;;;;;6.17;2.50;;;17.60;97.30;;;;;;5024078;28;20454;-84
2022/05/27 11:17:15;;;;;;;2.70;2.23;;;17.90;97.30;;;;;;5046946;28;20480;-87
2022/05/27 11:19:53;;;;;;;7.30;2.37;;;17.90;96.50;;;;;;5030508;28;21045;-83
2022/05/27 11:22:37;;;;;;;4.40;2.43;;;17.80;96.70;;;;;;5032850;28;20833;-86
2022/05/27 11:25:25;;;;;;;10.10;2.50;;;17.70;97.10;;;;;;5013226;28;20438;-88
2022/05/27 11:28:21;;;;;;;4.17;2.70;;;17.60;97.00;;;;;;5015748;28;20475;-87
2022/05/27 11:31:05;;;;;;;2.83;2.33;;;17.50;96.40;;;;;;5013485;28;20781;-83
2022/05/27 11:33:53;;;;;;;2.43;2.23;;;17.70;97.10;;;;;;5031752;28;20935;-85
2022/05/27 11:36:43;;;;;;;2.53;2.13;;;17.90;97.30;;;;;;5033248;28;20438;-86
2022/05/27 11:39:47;;;;;;;2.97;2.40;;;18.10;96.00;;;;;;5033462;28;20446;-87
2022/05/27 11:42:47;;;;;;;6.23;2.13;;;18.30;95.80;;;;;;5024643;28;20422;-84
2022/05/27 11:45:21;;;;;;;2.77;2.30;;;18.40;94.80;;;;;;5016532;28;20404;-87
2022/05/27 11:47:50;;;;;;;5.70;2.43;;;18.50;94.30;;;;;;5036627;28;20406;-86
2022/05/27 11:50:54;;;;;;;4.07;2.40;;;18.60;93.50;;;;;;5056959;28;20491;-86
2022/05/27 11:53:32;;;;;;;5.63;3.00;;;18.70;93.70;;;;;;5056055;28;20409;-86
2022/05/27 11:56:28;;;;;;;4.40;2.10;;;18.90;94.20;;;;;;5049179;28;20432;-84
2022/05/27 11:59:00;;;;;;;2.67;2.23;;;19.00;91.40;;;;;;5055556;28;20457;-86
2022/05/27 12:01:36;;;;;;;7.80;2.27;;;19.10;91.50;;;;;;5055755;28;20941;-86
2022/05/27 12:04:41;;;;;;;3.00;2.37;;;19.10;91.40;;;;;;5041700;28;20624;-86
2022/05/27 12:07:24;;;;;;;6.43;2.93;;;19.20;90.90;;;;;;5036297;28;20422;-86
2022/05/27 12:10:08;;;;;;;3.30;2.10;;;19.40;90.90;;;;;;5043244;28;20597;-85
2022/05/27 12:12:46;;;;;;;3.20;2.03;;;19.50;91.50;;;;;;5040661;28;20511;-88
2022/05/27 12:15:32;;;;;;;3.80;2.10;;;19.60;91.70;;;;;;5040596;28;20432;-86
2022/05/27 12:17:59;;;;;;;5.30;2.23;;;19.90;89.80;;;;;;5041890;28;20433;-84
2022/05/27 12:20:33;;;;;;;6.27;2.20;;;19.90;86.90;;;;;;5042094;28;20462;-86
2022/05/27 12:23:03;;;;;;;5.87;2.00;;;20.00;88.60;;;;;;5051425;28;20402;-86
2022/05/27 12:25:32;;;;;;;3.83;2.40;;;20.20;88.80;;;;;;5052685;28;20523;-90
2022/05/27 12:28:00;;;;;;;3.03;2.43;;;20.40;88.00;;;;;;5051621;28;20437;-88
2022/05/27 12:30:40;;;;;;;6.43;2.17;;;20.50;87.40;;;;;;5051614;28;20425;-83
2022/05/27 12:33:10;;;;;;;3.67;2.37;;;20.40;85.80;;;;;;5052315;28;20411;-86
2022/05/27 12:35:36;;;;;;;5.43;2.17;;;20.10;86.50;;;;;;5052357;28;20434;-85
2022/05/27 12:38:23;;;;;;;7.37;2.57;;;19.80;87.30;;;;;;5051681;28;21112;-87
2022/05/27 12:40:50;;;;;;;5.10;2.30;;;19.30;87.40;;;;;;5051948;28;20168;-88
2022/05/27 12:43:26;;;;;;;6.23;2.43;;;19.10;88.70;;;;;;5051795;28;20415;-87
2022/05/27 12:45:55;;;;;;;6.40;2.60;;;18.90;89.00;;;;;;5051589;28;20418;-85
2022/05/27 12:48:45;;;;;;;6.30;2.33;;;18.60;87.90;;;;;;5051289;28;20490;-85
2022/05/27 12:51:16;;;;;;;3.80;1.80;;;18.50;87.20;;;;;;5051237;28;20414;-85
2022/05/27 12:53:57;;;;;;;9.47;2.30;;;18.50;86.40;;;;;;5052780;28;20410;-87
2022/05/27 13:02:16;;;;;;;4.10;1.67;;;18.70;86.60;;;;;;5052615;28;20807;-85
2022/05/27 13:04:56;;;;;;;3.47;1.80;;;18.80;84.50;;;;;;5051448;28;20509;-85
2022/05/27 13:07:28;;;;;;;2.70;1.60;;;18.90;83.80;;;;;;5051138;28;20915;-85
2022/05/27 13:09:55;;;;;;;2.20;2.00;;;18.90;82.40;;;;;;5051745;28;20492;-86
2022/05/27 13:12:48;;;;;;;11.83;1.73;;;18.90;81.70;;;;;;5055530;28;21005;-85
2022/05/27 13:15:35;;;;;;;5.00;1.80;;;18.90;81.70;;;;;;5049441;28;20477;-83
2022/05/27 13:18:21;;;;;;;5.53;1.70;;;19.00;80.90;;;;;;5029877;28;20415;-81
2022/05/27 13:21:04;;;;;;;3.80;2.20;;;19.30;77.70;;;;;;5055371;28;20457;-81
2022/05/27 13:23:32;;;;;;;3.83;2.47;;;19.70;76.30;;;;;;5054241;28;20418;-82
2022/05/27 13:26:06;;;;;;;10.57;2.53;;;20.00;73.20;;;;;;5030402;28;20445;-82
2022/05/27 13:28:37;;;;;;;3.93;2.00;;;20.20;71.10;;;;;;5042725;28;21126;-83
2022/05/27 13:31:05;;;;;;;5.40;1.80;;;20.30;73.00;;;;;;5024100;28;20504;-84
2022/05/27 13:34:05;;;;;;;3.70;1.83;;;20.40;72.70;;;;;;5027338;28;20410;-80
2022/05/27 13:36:40;;;;;;;6.53;2.10;;;20.30;69.60;;;;;;5033801;28;20441;-83
2022/05/27 13:39:10;;;;;;;6.27;2.23;;;20.20;74.50;;;;;;5039630;28;20462;-83
2022/05/27 13:41:42;;;;;;;2.80;2.10;;;20.10;76.30;;;;;;5038898;28;20415;-84
2022/05/27 13:44:13;;;;;;;8.53;2.30;;;19.90;76.30;;;;;;5037538;28;20462;-84
2022/05/27 13:46:44;;;;;;;3.57;1.77;;;19.70;77.30;;;;;;5048954;28;20449;-81
2022/05/27 13:49:32;;;;;;;6.33;2.00;;;19.50;76.50;;;;;;5037619;28;20418;-82
2022/05/27 13:51:59;;;;;;;3.97;2.03;;;19.40;76.80;;;;;;5056032;28;20524;-82
2022/05/27 13:54:40;;;;;;;7.77;2.33;;;19.20;76.90;;;;;;5045896;28;20429;-82
2022/05/27 13:57:10;;;;;;;3.33;2.30;;;19.10;76.60;;;;;;5056123;28;20453;-83